Nearby METAR Reports

 

KBUF - Buffalo/Cheektow, New York, USA
Distance from station: 0 0mi, 0km
Updated: 05/30/2020 1:09pm
Overcast
Overcast
 Wind from WSW
Wind: WSW 21 mph , 33 km/h, Gust: 28 mph , 44 km/h
Temperature: 57°F , 14°C
Dew Point: 55°F , 13°C
Humidity: 94%
Barometer: 29.95 inHg , 1014.2 hPa
Clouds: Overcast
Visibility: 10 miles , 16 km
Cloud details: Mostly cloudy 800 ft
Overcast 1900 ft
2020/05/30 17:09 KBUF 301709Z 24018G24KT 10SM BKN008 OVC019 14/13 A2995 RMK AO2 T01390128 $
KIAG - Niagara Falls, New York, USA
Distance from station: NW 16mi, 26km
Updated: 05/30/2020 12:53pm
Overcast
Overcast
 Wind from W
Wind: W 14 mph , 22 km/h, Gust: 22 mph , 35 km/h
Temperature: 64°F , 18°C
Dew Point: 55°F , 13°C
Humidity: 73%
Barometer: 29.92 inHg , 1013.2 hPa
Clouds: Overcast
Visibility: 10 miles , 16 km
Cloud details: Few Clouds 2200 ft
Mostly cloudy 4200 ft
Overcast 8000 ft
2020/05/30 16:53 KIAG 301653Z 27012G19KT 10SM FEW022 BKN042 OVC080 18/13 A2992 RMK AO2 SLP132 T01780128
 
CWPC - Port Colborne(Au, Ontario, Canada
Distance from station: W 27mi, 43km
Updated: 05/30/2020 1:00pm

 Wind from WSW
Wind: WSW 24 mph , 39 km/h
Temperature: 57°F , 14°C
Dew Point: 54°F , 12°C
Humidity: 88%
2020/05/30 17:00 CWPC 301700Z AUTO 25021KT 14/12 RMK AO1 PK WND 25025/1659 SLP143 T01370122 56006
CYSN - St. Catharines A, Ontario, Canada
Distance from station: NW 29mi, 46km
Updated: 05/30/2020 1:00pm
Mostly cloudy
Mostly cloudy
 Wind from W
Wind: W 14 mph , 22 km/h, Gust: 22 mph , 35 km/h
Temperature: 63°F , 17°C
Dew Point: 55°F , 13°C
Humidity: 77%
Barometer: 29.92 inHg , 1013.2 hPa
Clouds: Mostly cloudy
Visibility: 15 miles , 24 km
Cloud details: Few Clouds 2500 ft
Mostly cloudy 5400 ft
Mostly cloudy 8000 ft
2020/05/30 17:00 CYSN 301700Z 28012G19KT 15SM FEW025 BKN054 BKN080 17/13 A2992 RMK SC2SC3AC2 SLP133 DENSITY ALT 700FT
 
CWWZ - Port Weller (mar, Ontario, Canada
Distance from station: NW 33mi, 53km
Updated: 05/30/2020 1:00pm

 Wind from W
Wind: W 14 mph , 22 km/h
Temperature: 63°F , 17°C
Dew Point: 59°F , 15°C
Humidity: 88%
2020/05/30 17:00 CWWZ 301700Z AUTO 28012KT 17/15 RMK AO1 SLP133 T01720147 56008
CXVN - Vineland (au8), Ontario, Canada
Distance from station: WNW 38mi, 61km
Updated: 05/30/2020 1:00pm

 Wind from WNW
Wind: WNW 15 mph , 24 km/h, Gust: 21 mph , 33 km/h
Temperature: 64°F , 18°C
Dew Point: 52°F , 11°C
Humidity: 64%
2020/05/30 17:00 CXVN 301700Z AUTO 29013G18KT 18/11 RMK AO1 PK WND 28018/1657 SLP136 T01780108 55006
 
KDKK - Dunkirk, New York, USA
Distance from station: SW 41mi, 66km
Updated: 05/30/2020 12:53pm
Overcast
Overcast
 Wind from WSW
Wind: WSW 16 mph , 26 km/h, Gust: 24 mph , 39 km/h
Temperature: 61°F , 16°C
Dew Point: 54°F , 12°C
Humidity: 77%
Barometer: 30.00 inHg , 1015.9 hPa
Clouds: Overcast
Visibility: 10 miles , 16 km
Cloud details: Overcast 1100 ft
2020/05/30 16:53 KDKK 301653Z AUTO 24014G21KT 10SM OVC011 16/12 A3000 RMK AO2 SLP157 T01560117 $
KOLE - Olean, New York, USA
Distance from station: SSE 52mi, 83km
Updated: 05/30/2020 12:55pm
Overcast
Overcast
 Wind from SW
Wind: SW 12 mph , 19 km/h, Gust: 22 mph , 35 km/h
Temperature: 59°F , 15°C
Dew Point: 50°F , 10°C
Humidity: 72%
Barometer: 29.97 inHg , 1014.9 hPa
Clouds: Overcast
Visibility: 10 miles , 16 km
Cloud details: Partly cloudy 2700 ft
Partly cloudy 3200 ft
Overcast 6500 ft
2020/05/30 16:55 KOLE 301655Z AUTO 23010G19KT 10SM SCT027 SCT032 OVC065 15/10 A2997 RMK AO2
 
KROC - Rochester, New York, USA
Distance from station: ENE 55mi, 88km
Updated: 05/30/2020 12:54pm
Overcast
Overcast
 Wind from SSW
Wind: SSW 9 mph , 15 km/h
Temperature: 64°F , 18°C
Dew Point: 54°F , 12°C
Humidity: 68%
Barometer: 29.90 inHg , 1012.5 hPa
Clouds: Overcast
Visibility: 10 miles , 16 km
Cloud details: Partly cloudy 3900 ft
Mostly cloudy 5000 ft
Overcast 11000 ft
2020/05/30 16:54 KROC 301654Z 20008KT 10SM SCT039 BKN050 OVC110 18/12 A2990 RMK AO2 RAB04E30 SLP128 P0000 T01830122
KDSV - Dansville, New York, USA
Distance from station: ESE 57mi, 92km
Updated: 05/30/2020 12:54pm
Mostly cloudy
Mostly cloudy
 Wind from SW
Wind: SW 9 mph , 15 km/h, Gust: 18 mph , 30 km/h
Temperature: 70°F , 21°C
Dew Point: 52°F , 11°C
Humidity: 53%
Barometer: 29.92 inHg , 1013.2 hPa
Clouds: Mostly cloudy
Visibility: 10 miles , 16 km
Cloud details: Mostly cloudy 5500 ft
Mostly cloudy 7000 ft
2020/05/30 16:54 KDSV 301654Z AUTO 23008G16KT 10SM BKN055 BKN070 21/11 A2992 RMK AO2 SLP138 T02110106
 
CWWB - Burlington Piers, Ontario, Canada
Distance from station: WNW 59mi, 94km
Updated: 05/30/2020 1:00pm

 Wind from WSW
Wind: WSW 13 mph , 20 km/h, Gust: 21 mph , 33 km/h
Temperature: 63°F , 17°C
Dew Point: 50°F , 10°C
Humidity: 64%
2020/05/30 17:00 CWWB 301700Z AUTO 25011G18KT 17/10 RMK AO1 PK WND 23018/1639 SLP140 T01710095 55003
CYTZ - Toronto Il Vor, Ontario, Canada
Distance from station: NW 59mi, 95km
Updated: 05/30/2020 1:00pm
Overcast
Overcast
 Wind from varies
Wind: varies 13 mph , 20 km/h, Gust: 22 mph , 35 km/h
Temperature: 61°F , 16°C
Dew Point: 54°F , 12°C
Humidity: 77%
Barometer: 29.91 inHg , 1012.9 hPa
Clouds: Overcast
Visibility: 9 miles , 14 km
Cloud details: Few Clouds 3400 ft
Partly cloudy 4300 ft
Partly cloudy 6000 ft
Overcast 7400 ft
2020/05/30 17:00 CYTZ 301700Z AUTO VRB11G19KT 9SM FEW034 SCT043 SCT060 OVC074 16/12 A2991 RMK SLP129 DENSITY ALT 400FT
 
CXTO - Toronto City, Ontario, Canada
Distance from station: NW 61mi, 98km
Updated: 05/30/2020 1:00pm

 
Temperature: 64°F , 18°C
Dew Point: 50°F , 10°C
Humidity: 60%
2020/05/30 17:00 CXTO 301700Z AUTO 18/10 RMK AO1 3PAST HR 5010 SLP137 P0001 T01830104 50003
KJHW - Jamestown, New York, USA
Distance from station: SSW 62mi, 99km
Updated: 05/30/2020 12:56pm
Overcast
Overcast
 Wind from W
Wind: W 14 mph , 22 km/h, Gust: 23 mph , 37 km/h
Temperature: 57°F , 14°C
Dew Point: 50°F , 10°C
Humidity: 77%
Barometer: 30.02 inHg , 1016.6 hPa
Clouds: Overcast
Visibility: 10 miles , 16 km
Cloud details: Few Clouds 2400 ft
Mostly cloudy 4900 ft
Overcast 6000 ft
2020/05/30 16:56 KJHW 301656Z AUTO 27012G20KT 10SM FEW024 BKN049 OVC060 14/10 A3002 RMK AO2 SLP169 T01440100
 
CYHM - Hamilton Airport, Ontario, Canada
Distance from station: WNW 63mi, 101km
Updated: 05/30/2020 1:00pm
Mostly cloudy
Mostly cloudy
 Wind from WNW
Wind: WNW 16 mph , 26 km/h, Gust: 26 mph , 43 km/h
Temperature: 59°F , 15°C
Dew Point: 50°F , 10°C
Humidity: 72%
Barometer: 29.96 inHg , 1014.6 hPa
Clouds: Mostly cloudy
Visibility: 15 miles , 24 km
Cloud details: Mostly cloudy 2400 ft
Mostly cloudy 3300 ft
2020/05/30 17:00 CYHM 301700Z 29014G23KT 240V310 15SM BKN024 BKN033 15/10 A2996 RMK SC5SC2 SLP150 DENSITY ALT 1000FT
CXHM - Hamilton Rbg Cs, Ontario, Canada
Distance from station: WNW 64mi, 102km
Updated: 05/30/2020 1:00pm

 Wind from W
Wind: W 10 mph , 17 km/h, Gust: 21 mph , 33 km/h
Temperature: 63°F , 17°C
Dew Point: 50°F , 10°C
Humidity: 64%
2020/05/30 17:00 CXHM 301700Z AUTO 28009G18KT 17/10 RMK AO1 PK WND 27020/1631 SLP144 T01740095 53001
 
CYYZ - Toronto/Pearson, Ontario, Canada
Distance from station: NW 67mi, 108km
Updated: 05/30/2020 1:00pm
Mostly cloudy
Mostly cloudy
 Wind from WNW
Wind: WNW 20 mph , 31 km/h, Gust: 26 mph , 43 km/h
Temperature: 64°F , 18°C
Dew Point: 52°F , 11°C
Humidity: 64%
Barometer: 29.93 inHg , 1013.5 hPa
Clouds: Mostly cloudy
Visibility: 15 miles , 24 km
Cloud details: Partly cloudy 2800 ft
Mostly cloudy 4800 ft
Mostly cloudy 8000 ft
2020/05/30 17:00 CYYZ 301700Z 29017G23KT 15SM SCT028 BKN048 BKN080 18/11 A2993 RMK CU3SC2AC2 SLP137 DENSITY ALT 1100FT
CYOO - Oshawa, Ontario, Canada
Distance from station: N 68mi, 110km
Updated: 05/30/2020 1:00pm
Mostly cloudy
Mostly cloudy
 Wind from SSW
Wind: SSW 8 mph , 13 km/h
Temperature: 63°F , 17°C
Dew Point: 54°F , 12°C
Humidity: 73%
Barometer: 29.89 inHg , 1012.2 hPa
Clouds: Mostly cloudy
Visibility: 9 miles , 14 km
Cloud details: Partly cloudy 3700 ft
Partly cloudy 7500 ft
Mostly cloudy 9400 ft
2020/05/30 17:00 CYOO 301700Z AUTO 20007KT 180V270 9SM SCT037 SCT075 BKN094 17/12 A2989 RMK SLP125 DENSITY ALT 800FT
 
KELZ - Wellsville, New York, USA
Distance from station: SE 69mi, 111km
Updated: 05/30/2020 12:56pm
Mostly cloudy
Mostly cloudy
 Wind from WSW
Wind: WSW 13 mph , 20 km/h, Gust: 23 mph , 37 km/h
Temperature: 63°F , 17°C
Dew Point: 52°F , 11°C
Humidity: 68%
Barometer: 29.99 inHg , 1015.6 hPa
Clouds: Mostly cloudy
Visibility: 10 miles , 16 km
Cloud details: Few Clouds 3400 ft
Partly cloudy 4500 ft
Mostly cloudy 7000 ft
2020/05/30 16:56 KELZ 301656Z AUTO 25011G20KT 10SM FEW034 SCT045 BKN070 17/11 A2999 RMK AO2 SLP152 T01720106
CWNC - Cobourg (mars), Ontario, Canada
Distance from station: NNE 76mi, 122km
Updated: 05/30/2020 1:00pm

 Wind from WSW
Wind: WSW 6 mph , 9 km/h
Temperature: 57°F , 14°C
Dew Point: 55°F , 13°C
Humidity: 94%
2020/05/30 17:00 CWNC 301700Z AUTO 24005KT 14/13 RMK AO1 6013 SLP128 T01420130 50029